Time;durP1;ratioP1;P1;durP2;ratioP2;P2;SDS_P1;SDS_P2;PMS_P1;PMS_P2;Temp;Humidity;BMP_temperature;BMP_pressure;BME280_temperature;BME280_humidity;BME280_pressure;Samples;Min_cycle;Max_cycle;Signal;HPM_P1;HPM_P2
2022/09/22 00:07:47;;;;;;;0.20;0.20;;;;;;;16.73;83.67;102236.97;21219341;27;20039;-74
2022/09/22 00:17:49;;;;;;;0.10;0.10;;;;;;;16.71;83.68;102237.09;21218551;27;20100;-73
2022/09/22 00:27:53;;;;;;;0.25;0.20;;;;;;;16.72;83.59;102236.13;21216245;27;20092;-74
2022/09/22 00:37:54;;;;;;;0.17;0.17;;;;;;;16.72;83.46;102227.19;21145287;27;20049;-74
2022/09/22 00:47:56;;;;;;;0.10;0.10;;;;;;;16.54;83.52;102192.44;21214561;27;20078;-74
2022/09/22 00:57:58;;;;;;;0.10;0.10;;;;;;;16.69;83.57;102214.81;21213788;27;20045;-74
2022/09/22 01:08:01;;;;;;;0.10;0.10;;;;;;;16.71;83.38;102209.31;21215198;27;20130;-73
2022/09/22 01:18:17;;;;;;;0.20;0.20;;;;;;;16.48;83.52;102165.94;21213615;27;20142;-74
2022/09/22 01:28:36;;;;;;;0.10;0.10;;;;;;;16.68;83.65;102187.03;21214058;27;20050;-74
2022/09/22 01:38:59;;;;;;;0.10;0.10;;;;;;;16.67;83.46;102182.63;21121180;27;20073;-74
2022/09/22 01:49:05;;;;;;;0.10;0.10;;;;;;;16.53;83.45;102155.75;21213207;27;20046;-74
2022/09/22 01:59:08;;;;;;;0.22;0.13;;;;;;;16.66;83.47;102175.53;21210953;27;20047;-73
2022/09/22 02:09:12;;;;;;;0.10;0.10;;;;;;;16.67;83.33;102166.50;21210788;27;20107;-73
2022/09/22 02:19:37;;;;;;;0.10;0.10;;;;;;;16.65;83.44;102154.97;21193933;27;20047;-74
2022/09/22 02:29:42;;;;;;;0.10;0.10;;;;;;;16.51;83.48;102128.09;21205699;27;20059;-77
2022/09/22 02:39:48;;;;;;;0.25;0.15;;;;;;;16.65;83.27;102152.28;21181464;27;20047;-74
2022/09/22 02:49:50;;;;;;;0.10;0.10;;;;;;;16.61;83.34;102128.41;21224247;27;20478;-74
2022/09/22 02:59:51;;;;;;;0.10;0.10;;;;;;;16.63;83.24;102127.31;21223329;27;20095;-73
2022/09/22 03:09:53;;;;;;;0.10;0.10;;;;;;;16.61;83.25;102113.13;21224316;27;20122;-74
2022/09/22 03:19:54;;;;;;;0.10;0.10;;;;;;;16.62;83.27;102114.84;21221281;27;20043;-74
2022/09/22 03:29:56;;;;;;;0.20;0.20;;;;;;;16.61;83.25;102102.34;21151870;27;20045;-73
2022/09/22 03:39:57;;;;;;;0.55;0.20;;;;;;;16.61;83.19;102096.97;21208571;27;20551;-74
2022/09/22 03:49:59;;;;;;;0.75;0.20;;;;;;;16.55;83.29;102086.63;21221531;27;20043;-74
2022/09/22 04:00:01;;;;;;;0.10;0.10;;;;;;;16.60;83.17;102091.72;21220040;27;20086;-75
2022/09/22 04:10:12;;;;;;;0.60;0.15;;;;;;;16.60;83.10;102092.56;21202805;27;20303;-74
2022/09/22 04:20:13;;;;;;;0.10;0.10;;;;;;;16.59;83.12;102088.16;21218569;27;20053;-73
2022/09/22 04:30:15;;;;;;;0.10;0.10;;;;;;;16.55;83.04;102081.25;21145760;27;20423;-73
2022/09/22 04:40:17;;;;;;;0.10;0.10;;;;;;;16.58;82.90;102075.66;21216768;27;20042;-74
2022/09/22 04:50:21;;;;;;;0.20;0.20;;;;;;;16.58;83.02;102072.13;21215927;27;20134;-74
2022/09/22 05:00:25;;;;;;;0.22;0.20;;;;;;;16.57;83.00;102073.94;21213769;27;20051;-74
2022/09/22 05:10:31;;;;;;;0.25;0.20;;;;;;;16.49;83.09;102070.91;21215362;27;20047;-73
2022/09/22 05:20:32;;;;;;;0.20;0.20;;;;;;;16.57;83.09;102078.44;21213139;27;20441;-73
2022/09/22 05:30:34;;;;;;;0.20;0.20;;;;;;;16.31;82.84;102054.97;21137815;27;20104;-74
2022/09/22 05:40:35;;;;;;;0.20;0.20;;;;;;;16.55;82.94;102092.00;21213492;27;20448;-74
2022/09/22 05:50:37;;;;;;;0.10;0.10;;;;;;;16.44;82.81;102073.88;21210959;27;20481;-73
2022/09/22 06:00:39;;;;;;;0.10;0.10;;;;;;;16.56;82.90;102098.22;21221435;27;20130;-74
2022/09/22 06:10:44;;;;;;;0.25;0.20;;;;;;;16.55;83.27;102101.88;21229330;27;20445;-74
2022/09/22 06:20:45;;;;;;;0.30;0.30;;;;;;;16.55;82.87;102101.88;21226761;27;20073;-74
2022/09/22 06:30:48;;;;;;;0.20;0.20;;;;;;;16.54;83.03;102098.34;21184037;27;20051;-73
2022/09/22 06:40:50;;;;;;;0.15;0.15;;;;;;;16.53;82.81;102080.47;21226830;27;20223;-74
2022/09/22 06:50:52;;;;;;;0.10;0.10;;;;;;;16.09;82.72;102015.16;21225989;27;20051;-74
2022/09/22 07:00:57;;;;;;;0.30;0.20;;;;;;;16.54;82.78;102092.97;21225282;27;20039;-73
2022/09/22 07:11:03;;;;;;;;;;;;;;;16.54;82.51;102092.97;21223567;27;20089;-74
2022/09/22 07:21:11;;;;;;;0.25;0.15;;;;;;;16.52;82.66;102093.03;21224029;27;19950;-74
2022/09/22 07:31:14;;;;;;;0.35;0.20;;;;;;;16.52;82.67;102086.81;21140073;27;20039;-73
2022/09/22 07:41:21;;;;;;;0.40;0.38;;;;;;;16.40;82.70;102058.91;21220582;27;20500;-73
2022/09/22 07:51:24;;;;;;;0.10;0.10;;;;;;;16.55;82.66;102081.25;21219767;27;20047;-73
2022/09/22 08:01:26;;;;;;;0.13;0.13;;;;;;;16.55;82.71;102078.56;21220540;27;20395;-73
2022/09/22 08:11:27;;;;;;;0.20;0.20;;;;;;;16.55;82.54;102075.88;21200779;27;20055;-73
2022/09/22 08:21:34;;;;;;;0.20;0.20;;;;;;;16.29;82.51;102031.84;21176090;27;20050;-74
2022/09/22 08:31:39;;;;;;;0.17;0.13;;;;;;;16.59;82.63;102061.25;21173514;27;20050;-73
2022/09/22 08:41:47;;;;;;;0.20;0.20;;;;;;;16.62;82.32;102070.97;21198823;27;20126;-74
2022/09/22 08:51:53;;;;;;;0.17;0.17;;;;;;;16.65;82.18;102074.31;21214581;27;20525;-74
2022/09/22 09:02:32;;;;;;;0.17;0.17;;;;;;;16.67;82.18;102082.28;21197223;27;20088;-74
2022/09/22 09:12:51;;;;;;;0.20;0.17;;;;;;;16.68;82.26;102071.41;21214815;27;20099;-73
2022/09/22 09:22:54;;;;;;;0.15;0.15;;;;;;;16.56;81.97;102042.66;21141468;27;20042;-73
2022/09/22 09:33:01;;;;;;;0.10;0.10;;;;;;;16.52;82.07;102041.13;21211627;27;20043;-74
2022/09/22 09:43:04;;;;;;;0.15;0.15;;;;;;;16.67;82.00;102050.88;21212128;27;20050;-74
2022/09/22 09:53:19;;;;;;;0.20;0.20;;;;;;;16.60;82.05;102035.25;21194876;27;20061;-73
2022/09/22 10:03:26;;;;;;;0.20;0.20;;;;;;;16.63;81.98;102043.13;21211678;27;20047;-74
2022/09/22 10:13:30;;;;;;;0.20;0.20;;;;;;;16.63;82.06;102038.59;21212423;27;20067;-74
2022/09/22 10:23:33;;;;;;;0.20;0.20;;;;;;;16.66;82.04;102046.47;21134454;27;20537;-73
2022/09/22 10:33:34;;;;;;;0.20;0.20;;;;;;;16.66;82.12;102035.69;21210274;27;20057;-74
2022/09/22 10:43:47;;;;;;;0.10;0.10;;;;;;;16.67;82.21;102032.03;21214039;27;20055;-74
2022/09/22 10:54:10;;;;;;;0.10;0.10;;;;;;;16.67;82.04;102025.81;21224108;27;20043;-73
2022/09/22 11:04:15;;;;;;;0.20;0.20;;;;;;;16.67;82.14;102015.91;21223737;27;20043;-74
2022/09/22 11:14:22;;;;;;;0.25;0.20;;;;;;;16.67;82.05;102007.00;21224229;27;20388;-74
2022/09/22 11:24:45;;;;;;;0.30;0.20;;;;;;;16.68;82.05;101997.97;21177540;27;20058;-73
2022/09/22 11:34:50;;;;;;;0.80;0.20;;;;;;;16.68;82.19;101987.22;21222876;27;20092;-73
2022/09/22 11:45:04;;;;;;;0.20;0.20;;;;;;;16.67;82.28;101980.97;21222556;27;20085;-73
2022/09/22 11:55:22;;;;;;;0.37;0.20;;;;;;;16.68;82.07;101969.25;21220439;27;20059;-73
2022/09/22 12:05:40;;;;;;;0.22;0.10;;;;;;;16.70;82.05;101960.22;21218701;27;20058;-74
2022/09/22 12:16:01;;;;;;;0.30;0.30;;;;;;;16.69;81.97;101953.97;21196663;27;20055;-73
2022/09/22 12:26:09;;;;;;;0.35;0.20;;;;;;;16.68;82.13;101947.72;21173942;27;20066;-73
2022/09/22 12:36:11;;;;;;;0.28;0.28;;;;;;;16.69;82.03;101940.53;21215888;27;20058;-73
2022/09/22 12:46:23;;;;;;;0.10;0.10;;;;;;;16.67;82.09;101919.13;21206213;27;20103;-73
2022/09/22 12:56:52;;;;;;;0.20;0.20;;;;;;;16.70;82.01;101911.81;21214178;27;20047;-74
2022/09/22 13:06:54;;;;;;;0.20;0.20;;;;;;;16.65;82.05;101890.63;21213635;27;20449;-74
2022/09/22 13:16:56;;;;;;;1.00;0.30;;;;;;;16.70;82.12;101885.81;21126247;27;20068;-73
2022/09/22 13:27:03;;;;;;;0.20;0.20;;;;;;;16.71;82.09;101884.84;21214339;27;20069;-74
2022/09/22 13:37:10;;;;;;;0.30;0.30;;;;;;;16.70;81.79;101875.03;21212653;27;20092;-73
2022/09/22 13:47:16;;;;;;;0.20;0.10;;;;;;;16.70;82.03;101847.28;21218881;27;20043;-73
2022/09/22 13:57:22;;;;;;;0.30;0.30;;;;;;;16.70;82.04;101850.84;21177685;27;20138;-73
2022/09/22 14:07:29;;;;;;;0.20;0.20;;;;;;;16.71;81.94;101847.19;21213160;27;20134;-74
2022/09/22 14:17:30;;;;;;;0.20;0.20;;;;;;;16.72;82.09;101835.47;21156041;27;20525;-74
2022/09/22 14:27:40;;;;;;;0.20;0.20;;;;;;;16.71;82.10;101822.09;21226384;27;20051;-74
2022/09/22 14:37:44;;;;;;;0.20;0.20;;;;;;;16.71;82.11;101814.91;21226128;27;20412;-73
2022/09/22 14:47:45;;;;;;;0.20;0.20;;;;;;;16.72;82.23;101807.69;21225391;27;20051;-74
2022/09/22 14:57:48;;;;;;;0.20;0.20;;;;;;;16.72;82.08;101791.56;21225596;27;20051;-73
2022/09/22 15:07:50;;;;;;;0.28;0.28;;;;;;;16.72;82.06;101786.19;21223676;27;20403;-74
2022/09/22 15:28:19;;;;;;;0.30;0.30;;;;;;;16.70;82.18;101780.94;21221118;27;20083;-73
2022/09/22 15:38:23;;;;;;;0.30;0.30;;;;;;;16.71;82.16;101779.09;21221034;27;20062;-74
2022/09/22 15:48:37;;;;;;;0.20;0.20;;;;;;;16.71;82.24;101773.72;21220239;27;20154;-74
2022/09/22 15:58:40;;;;;;;0.20;0.20;;;;;;;16.71;82.13;101762.97;21216211;27;20049;-74
2022/09/22 16:08:48;;;;;;;0.30;0.30;;;;;;;16.61;82.15;101742.09;21218312;27;20108;-73
2022/09/22 16:18:50;;;;;;;0.22;0.22;;;;;;;16.63;82.31;101734.78;21170679;27;20047;-74
2022/09/22 16:28:53;;;;;;;0.45;0.30;;;;;;;16.71;82.59;101736.06;21199792;27;20047;-73
2022/09/22 16:38:54;;;;;;;0.20;0.20;;;;;;;16.70;82.32;101737.91;21215859;27;20043;-73
2022/09/22 16:49:03;;;;;;;0.20;0.10;;;;;;;16.70;82.31;101742.41;21214700;27;20100;-74
2022/09/22 16:59:05;;;;;;;0.28;0.28;;;;;;;16.68;82.24;101737.16;21216724;27;20039;-73
2022/09/22 17:09:07;;;;;;;0.28;0.28;;;;;;;16.67;82.45;101733.59;21189289;27;20411;-73
2022/09/22 17:19:16;;;;;;;0.22;0.20;;;;;;;16.68;82.53;101731.78;21171791;27;20078;-73
2022/09/22 17:29:23;;;;;;;0.20;0.20;;;;;;;16.27;82.36;101661.13;21214176;27;20377;-73
2022/09/22 17:39:26;;;;;;;0.20;0.20;;;;;;;16.66;82.86;101729.19;21196510;27;20058;-74
2022/09/22 17:59:47;;;;;;;0.10;0.10;;;;;;;16.66;82.56;101720.28;21226495;27;20043;-74
2022/09/22 18:09:50;;;;;;;0.30;0.30;;;;;;;16.65;82.53;101722.09;21140165;27;20047;-74
2022/09/22 18:19:56;;;;;;;0.28;0.28;;;;;;;16.64;82.50;101715.00;21224593;27;20414;-74
2022/09/22 18:29:58;;;;;;;0.20;0.20;;;;;;;16.63;82.65;101713.28;21226067;27;20043;-74
2022/09/22 18:40:00;;;;;;;0.20;0.20;;;;;;;16.57;82.58;101710.16;21226763;27;20427;-73
2022/09/22 18:50:03;;;;;;;0.10;0.10;;;;;;;16.64;82.73;101714.16;21207718;27;20522;-74
2022/09/22 19:00:05;;;;;;;0.20;0.20;;;;;;;16.63;82.61;101717.81;21224084;27;20047;-74
2022/09/22 19:10:09;;;;;;;0.30;0.30;;;;;;;16.62;82.66;101716.94;21165580;27;20526;-74
2022/09/22 19:20:12;;;;;;;0.20;0.20;;;;;;;16.62;82.52;101700.81;21223237;27;20047;-74
2022/09/22 19:30:13;;;;;;;0.20;0.20;;;;;;;16.61;82.58;101704.47;21204802;27;20560;-74
2022/09/22 19:40:17;;;;;;;0.40;0.30;;;;;;;16.61;82.70;101699.09;21203791;27;20096;-73
2022/09/22 19:50:19;;;;;;;0.40;0.40;;;;;;;16.47;82.78;101672.34;21221814;27;20062;-73
2022/09/22 20:00:24;;;;;;;0.22;0.22;;;;;;;16.60;82.73;101691.16;21220900;27;20491;-74
2022/09/22 20:10:26;;;;;;;0.32;0.30;;;;;;;16.60;82.71;101686.63;21140972;27;20461;-74
2022/09/22 20:20:28;;;;;;;0.20;0.20;;;;;;;16.60;82.58;101685.78;21216844;27;20059;-74
2022/09/22 20:30:30;;;;;;;0.40;0.40;;;;;;;16.46;82.74;101654.47;21218428;27;20065;-74
2022/09/22 20:40:32;;;;;;;0.30;0.30;;;;;;;16.59;82.61;101671.44;21215555;27;20047;-73
2022/09/22 20:50:33;;;;;;;0.30;0.20;;;;;;;16.59;82.54;101662.53;21216967;27;20047;-74
2022/09/22 21:00:35;;;;;;;0.28;0.28;;;;;;;16.33;82.77;101625.78;21214589;27;20046;-73
2022/09/22 21:10:36;;;;;;;0.73;0.20;;;;;;;16.58;82.63;101656.28;21164753;27;20047;-74
2022/09/22 21:20:39;;;;;;;0.30;0.30;;;;;;;16.58;82.74;101648.22;21196987;27;20129;-74
2022/09/22 21:30:41;;;;;;;0.20;0.20;;;;;;;16.46;82.70;101630.28;21213519;27;20130;-74
2022/09/22 21:40:43;;;;;;;0.30;0.30;;;;;;;16.58;82.66;101642.00;21211771;27;20042;-74
2022/09/22 21:50:53;;;;;;;0.30;0.30;;;;;;;16.45;82.68;101628.56;21211637;27;20067;-74
2022/09/22 22:00:55;;;;;;;0.20;0.20;;;;;;;16.56;82.65;101642.09;21202610;27;20067;-73
2022/09/22 22:11:05;;;;;;;0.30;0.30;;;;;;;16.48;82.66;101607.69;21134232;27;20139;-74
2022/09/22 22:21:12;;;;;;;0.22;0.22;;;;;;;16.56;82.60;101614.34;21211026;27;20118;-73
2022/09/22 22:31:16;;;;;;;0.30;0.30;;;;;;;16.54;82.65;101606.41;21210631;27;20043;-73
2022/09/22 22:41:18;;;;;;;0.40;0.30;;;;;;;16.55;82.71;101593.81;21216949;27;20093;-74
2022/09/22 22:51:22;;;;;;;0.30;0.30;;;;;;;16.54;82.55;101598.34;21225938;27;20499;-73
2022/09/22 23:01:29;;;;;;;0.40;0.40;;;;;;;16.55;82.58;101586.63;21170734;27;20063;-73
2022/09/22 23:11:35;;;;;;;0.30;0.30;;;;;;;16.54;82.63;101568.78;21191859;27;20054;-74
2022/09/22 23:21:37;;;;;;;0.30;0.30;;;;;;;16.54;82.61;101558.03;21223851;27;20447;-74
2022/09/22 23:31:38;;;;;;;0.40;0.40;;;;;;;16.54;82.58;101547.28;21223219;27;20476;-74
2022/09/22 23:41:41;;;;;;;0.25;0.25;;;;;;;16.49;82.53;101530.63;21222255;27;20449;-73
2022/09/22 23:51:43;;;;;;;0.30;0.30;;;;;;;16.34;82.56;101494.97;21218753;27;20039;-74
